createdAt,value
2022-07-28T00:00:31.222Z,65.93
2022-07-28T00:05:36.574Z,66.21
2022-07-28T00:10:39.959Z,66.17
2022-07-28T00:15:43.292Z,66.26
2022-07-28T00:20:48.120Z,66.23
2022-07-28T00:25:51.370Z,65.82
2022-07-28T00:30:56.376Z,65.84
2022-07-28T00:36:01.148Z,66.16
2022-07-28T00:41:14.160Z,66.17
2022-07-28T00:46:19.680Z,65.98
2022-07-28T00:51:27.864Z,65.85
2022-07-28T00:56:31.828Z,66.08
2022-07-28T01:01:36.022Z,66.24
2022-07-28T01:06:49.025Z,65.52
2022-07-28T01:11:59.444Z,66.15
2022-07-28T01:17:09.132Z,66.03
2022-07-28T01:22:18.699Z,65.95
2022-07-28T01:27:37.102Z,66.42
2022-07-28T01:32:45.408Z,66.46
2022-07-28T01:37:53.433Z,66.60
2022-07-28T01:43:00.437Z,66.26
2022-07-28T01:48:06.912Z,66.47
2022-07-28T01:53:11.942Z,66.31
2022-07-28T01:58:18.249Z,66.20
2022-07-28T02:03:25.456Z,65.97
2022-07-28T02:08:29.773Z,65.61
2022-07-28T02:13:35.206Z,64.67
2022-07-28T02:18:41.368Z,64.70
2022-07-28T02:23:48.828Z,64.39
2022-07-28T02:28:55.497Z,64.27
2022-07-28T02:34:04.377Z,64.03
2022-07-28T02:39:17.097Z,62.95
2022-07-28T02:44:27.588Z,62.43
2022-07-28T02:49:34.930Z,62.55
2022-07-28T02:54:39.083Z,62.08
2022-07-28T02:59:44.091Z,62.11
2022-07-28T03:05:00.916Z,61.98
2022-07-28T03:10:05.366Z,61.77
2022-07-28T03:15:09.670Z,61.87
2022-07-28T03:20:16.020Z,60.83
2022-07-28T03:25:27.795Z,60.17
2022-07-28T03:30:43.549Z,59.81
2022-07-28T03:35:52.952Z,59.75
2022-07-28T03:40:58.855Z,59.15
2022-07-28T03:46:02.404Z,58.09
2022-07-28T03:51:07.162Z,57.86
2022-07-28T03:56:10.566Z,57.36
2022-07-28T04:01:14.122Z,56.02
2022-07-28T04:06:19.294Z,53.64
2022-07-28T04:11:23.354Z,51.89
2022-07-28T04:16:26.846Z,47.48
2022-07-28T04:21:31.682Z,48.04
2022-07-28T04:26:35.012Z,48.90
2022-07-28T04:31:38.566Z,41.54
2022-07-28T04:36:43.746Z,36.61
2022-07-28T04:41:47.067Z,32.24
2022-07-28T04:46:50.426Z,30.51
2022-07-28T04:51:55.159Z,29.42
2022-07-28T04:57:00.808Z,28.01
2022-07-28T05:02:09.082Z,26.86
2022-07-28T05:07:14.073Z,24.66
2022-07-28T05:12:17.447Z,21.14
2022-07-28T05:17:20.768Z,20.88
2022-07-28T05:22:25.513Z,24.11
2022-07-28T05:27:28.785Z,28.26
2022-07-28T05:32:32.084Z,25.56
2022-07-28T05:37:37.770Z,21.72
2022-07-28T05:42:41.118Z,19.40
2022-07-28T05:47:46.421Z,18.81
2022-07-28T05:52:51.905Z,19.12
2022-07-28T05:57:55.347Z,20.07
2022-07-28T06:03:02.168Z,21.38
2022-07-28T06:08:10.621Z,20.72
2022-07-28T06:13:16.413Z,19.16
2022-07-28T06:18:19.974Z,18.14
2022-07-28T06:23:25.157Z,21.45
2022-07-28T06:28:28.465Z,20.05
2022-07-28T06:33:31.917Z,19.67
2022-07-28T06:38:36.774Z,20.42
2022-07-28T06:43:40.253Z,22.08
2022-07-28T06:48:46.073Z,21.49
2022-07-28T06:53:50.897Z,19.97
2022-07-28T06:58:54.215Z,17.50
2022-07-28T07:03:57.894Z,15.08
2022-07-28T07:09:03.001Z,15.25
2022-07-28T07:14:06.335Z,15.67
2022-07-28T07:19:15.452Z,16.61
2022-07-28T07:24:20.530Z,17.20
2022-07-28T07:29:25.823Z,16.75
2022-07-28T07:34:33.860Z,17.51
2022-07-28T07:39:38.629Z,17.52
2022-07-28T07:44:42.134Z,16.27
2022-07-28T07:49:53.801Z,18.45
2022-07-28T07:54:58.665Z,20.82
2022-07-28T08:00:02.122Z,22.28
2022-07-28T08:05:07.010Z,24.64
2022-07-28T08:10:13.120Z,26.56
2022-07-28T08:15:16.626Z,30.36
2022-07-28T08:20:20.126Z,32.37
2022-07-28T08:25:25.675Z,33.01
2022-07-28T08:30:32.736Z,34.63
2022-07-28T08:35:36.663Z,35.87
2022-07-28T08:40:43.580Z,36.88
2022-07-28T08:45:52.543Z,35.93
2022-07-28T08:51:01.803Z,35.93
2022-07-28T08:56:07.931Z,36.90
2022-07-28T09:01:11.664Z,37.22
2022-07-28T09:06:15.434Z,37.33
2022-07-28T09:11:20.214Z,34.44
2022-07-28T09:16:23.845Z,33.83
2022-07-28T09:21:27.308Z,33.04
2022-07-28T09:26:32.124Z,32.62
2022-07-28T09:31:35.531Z,32.84
2022-07-28T09:36:41.569Z,33.07
2022-07-28T09:41:50.695Z,33.26
2022-07-28T09:46:54.541Z,33.46
2022-07-28T09:52:03.204Z,33.62
2022-07-28T09:57:11.863Z,34.38
2022-07-28T10:02:25.490Z,33.21
2022-07-28T10:07:31.319Z,33.17
2022-07-28T10:12:38.340Z,33.27
2022-07-28T10:17:43.315Z,31.71
2022-07-28T10:22:47.297Z,30.58
2022-07-28T10:27:52.675Z,30.35
2022-07-28T10:32:58.387Z,31.01
2022-07-28T10:38:05.659Z,30.67
2022-07-28T10:43:10.563Z,30.23
2022-07-28T10:48:14.306Z,30.31
2022-07-28T10:53:29.203Z,30.85
2022-07-28T10:58:45.322Z,31.04
2022-07-28T11:03:49.604Z,32.29
2022-07-28T11:08:53.851Z,32.54
2022-07-28T11:14:38.993Z,32.66
2022-07-28T11:25:22.413Z,32.53
2022-07-28T11:30:53.719Z,32.79
2022-07-28T11:36:02.164Z,33.23
2022-07-28T11:41:30.119Z,33.60
2022-07-28T11:46:39.934Z,34.57
2022-07-28T11:52:03.497Z,35.73
2022-07-28T11:57:09.954Z,35.72
2022-07-28T12:02:19.029Z,39.60
2022-07-28T12:07:29.308Z,43.65
2022-07-28T12:12:34.667Z,43.40
2022-07-28T12:17:40.647Z,43.47
2022-07-28T12:22:56.664Z,41.09
2022-07-28T12:28:14.237Z,40.36
2022-07-28T12:33:26.182Z,39.84
2022-07-28T12:38:34.580Z,40.08
2022-07-28T12:43:38.232Z,39.32
2022-07-28T12:48:43.145Z,39.87
2022-07-28T12:53:52.476Z,42.28
2022-07-28T12:59:06.413Z,44.18
2022-07-28T13:04:11.404Z,44.30
2022-07-28T13:09:29.940Z,47.02
2022-07-28T13:14:43.929Z,52.63
2022-07-28T13:19:49.622Z,55.12
2022-07-28T13:24:53.254Z,56.18
2022-07-28T13:29:57.354Z,56.92
2022-07-28T13:35:03.554Z,58.21
2022-07-28T13:40:08.172Z,59.21
2022-07-28T13:45:12.292Z,59.01
2022-07-28T13:50:22.056Z,60.69
2022-07-28T13:55:27.577Z,62.29
2022-07-28T14:00:31.320Z,62.52
2022-07-28T14:05:36.788Z,63.61
2022-07-28T14:10:41.981Z,61.90
2022-07-28T14:15:51.945Z,61.65
2022-07-28T14:21:09.323Z,61.56
2022-07-28T14:26:34.870Z,62.23
2022-07-28T14:31:37.633Z,62.87
2022-07-28T14:36:42.489Z,64.35
2022-07-28T14:41:45.868Z,64.85
2022-07-28T14:46:52.501Z,65.26
2022-07-28T14:51:58.002Z,65.83
2022-07-28T14:57:01.520Z,65.13
2022-07-28T15:02:05.250Z,66.07
2022-07-28T15:07:10.288Z,66.26
2022-07-28T15:12:15.441Z,66.13
2022-07-28T15:17:19.759Z,66.14
2022-07-28T15:22:26.446Z,66.55
2022-07-28T15:27:33.648Z,67.42
2022-07-28T15:32:47.492Z,67.41
2022-07-28T15:38:01.183Z,66.91
2022-07-28T15:43:04.663Z,67.17
2022-07-28T15:48:09.040Z,66.53
2022-07-28T15:53:13.786Z,66.12
2022-07-28T15:58:17.174Z,65.23
2022-07-28T16:03:22.763Z,66.09
2022-07-28T16:08:28.363Z,65.97
2022-07-28T16:13:36.840Z,64.27
2022-07-28T16:18:44.054Z,63.72
2022-07-28T16:23:48.808Z,63.28
2022-07-28T16:28:52.182Z,63.32
2022-07-28T16:33:56.905Z,63.50
2022-07-28T16:39:04.246Z,62.68
2022-07-28T16:44:07.702Z,62.47
2022-07-28T16:49:11.129Z,62.69
2022-07-28T16:54:16.227Z,62.71
2022-07-28T16:59:20.826Z,62.79
2022-07-28T17:04:24.406Z,62.86
2022-07-28T17:09:29.142Z,62.32
2022-07-28T17:14:32.606Z,63.00
2022-07-28T17:19:39.827Z,63.34
2022-07-28T17:24:48.480Z,63.96
2022-07-28T17:29:52.866Z,64.35
2022-07-28T17:34:56.213Z,64.52
2022-07-28T17:40:01.198Z,64.58
2022-07-28T17:45:09.418Z,65.08
2022-07-28T17:50:13.639Z,64.65
2022-07-28T17:55:58.030Z,64.04
2022-07-28T18:01:11.065Z,64.05
2022-07-28T18:06:15.118Z,64.15
2022-07-28T18:11:20.187Z,63.72
2022-07-28T18:16:23.631Z,63.89
2022-07-28T18:21:27.153Z,63.72
2022-07-28T18:26:32.234Z,63.83
2022-07-28T18:31:35.662Z,63.83
2022-07-28T18:36:39.112Z,63.95
2022-07-28T18:41:46.029Z,63.76
2022-07-28T18:46:52.573Z,63.81
2022-07-28T18:51:56.183Z,63.88
2022-07-28T18:57:00.971Z,63.69
2022-07-28T19:02:04.472Z,64.15
2022-07-28T19:07:07.875Z,64.98
2022-07-28T19:12:12.893Z,65.07
2022-07-28T19:17:16.227Z,65.19
2022-07-28T19:22:19.868Z,65.33
2022-07-28T19:27:24.654Z,65.65
2022-07-28T19:32:34.444Z,65.88
2022-07-28T19:37:39.057Z,66.16
2022-07-28T19:42:43.813Z,66.25
2022-07-28T19:47:47.216Z,66.55
2022-07-28T19:52:53.272Z,66.48
2022-07-28T19:57:59.385Z,66.50
2022-07-28T20:03:03.448Z,66.82
2022-07-28T20:08:06.897Z,66.62
2022-07-28T20:13:11.977Z,66.62
2022-07-28T20:18:17.242Z,66.72
2022-07-28T20:23:20.622Z,67.29
2022-07-28T20:28:25.424Z,67.00
2022-07-28T20:33:30.092Z,67.19
2022-07-28T20:38:33.408Z,67.14
2022-07-28T20:43:38.647Z,66.97
2022-07-28T20:48:42.087Z,66.81
2022-07-28T20:53:45.389Z,66.31
2022-07-28T20:58:50.178Z,66.15
2022-07-28T21:03:53.457Z,66.25
2022-07-28T21:08:59.974Z,65.78
2022-07-28T21:14:05.032Z,65.74
2022-07-28T21:19:08.805Z,65.27
2022-07-28T21:24:12.423Z,65.03
2022-07-28T21:34:20.303Z,64.35
2022-07-28T21:39:23.644Z,63.63
2022-07-28T21:44:28.505Z,63.61
2022-07-28T21:49:32.499Z,63.71
2022-07-28T21:54:36.711Z,63.29
2022-07-28T21:59:41.445Z,63.20
2022-07-28T22:04:44.779Z,63.42
2022-07-28T22:09:48.127Z,63.29
2022-07-28T22:14:52.972Z,63.30
2022-07-28T22:19:56.350Z,62.96
2022-07-28T22:24:59.816Z,63.25
2022-07-28T22:30:05.391Z,62.87
2022-07-28T22:35:10.803Z,63.02
2022-07-28T22:40:16.205Z,63.04
2022-07-28T22:45:50.619Z,63.53
2022-07-28T22:50:44.638Z,64.50
2022-07-28T22:55:49.412Z,65.12
2022-07-28T23:00:55.029Z,65.57
2022-07-28T23:06:00.193Z,65.60
2022-07-28T23:11:03.582Z,65.62
2022-07-28T23:16:10.493Z,65.57
2022-07-28T23:21:14.051Z,65.86
2022-07-28T23:26:17.492Z,65.93
2022-07-28T23:31:23.036Z,66.43
2022-07-28T23:36:27.884Z,66.47
2022-07-28T23:41:31.582Z,66.88
2022-07-28T23:46:37.117Z,66.95
2022-07-28T23:51:47.581Z,66.85
2022-07-28T23:56:55.255Z,66.96
